• Join FlightAware (Why Join?)
  • Login
  • US Flag 
10:05PM EDT


 

Airport Tracker/Info


-or-


 

Live Flight TrackerFlight Track Log ✈ CPT8773 ✈ 29-Apr-2013 ✈ KCPR - KCOD

Flight Track Log - Related Links

Times and Time Zones

All times are in EDT time to prevent confusion due to time zone crossing. See the CPT8773 flight status page for this flight to view local times or setup timezone preferences in your user account.

Time Position Orientation Groundspeed Altitude Reporting Facility
EDT Latitude Longitude Course Direction KTS MPH feet Rate Location/Type
08:59AM 42.9400 -106.5069 45° Northeast 120 138 7,000  Level Denver Center
09:00AM 42.9739 -106.5131 352° North 124 143 7,700 540 Climbing Denver Center
09:01AM 43.0056 -106.5192 352° North 123 142 8,200 540 Climbing Denver Center
09:02AM 43.0428 -106.5253 353° North 122 140 8,800 540 Climbing Denver Center
09:03AM 42.9237 -106.4427 45° Northeast  Level FlightAware Approximate
09:03AM 43.0753 -106.5325 351° North 122 140 9,400  Level Denver Center
09:04AM 42.9492 -106.4074 45° Northeast  Level FlightAware Approximate
09:04AM 43.1078 -106.5403 350° North 123 142 9,900  Level Denver Center
09:05AM 43.1456 -106.5464 353° North 122 140 10,600 540 Climbing Denver Center
09:06AM 43.1758 -106.5519 352° North 119 137 11,100 420 Climbing Denver Center
09:07AM 43.2025 -106.5592 349° North 122 140 11,500 420 Climbing Denver Center
09:08AM 43.2447 -106.5739 346° North 123 142 12,000 240 Climbing Denver Center
09:09AM 43.2683 -106.6097 312° West 132 152 12,100  Climbing Denver Center
09:10AM 43.2875 -106.6519 302° West 135 155 12,100  Level Denver Center
09:11AM 43.3139 -106.7014 306° West 143 165 12,100  Level Denver Center
09:12AM 43.3364 -106.7425 307° West 142 163 12,100  Level Denver Center
09:13AM 43.3578 -106.7836 306° West 139 160 12,100  Level Denver Center
09:14AM 43.3844 -106.8331 307° West 144 166 12,100  Level Denver Center
09:15AM 43.4056 -106.8728 306° West 137 158 12,100  Level Denver Center
09:16AM 43.4294 -106.9167 307° West 144 166 12,100  Level Denver Center
09:17AM 43.4539 -106.9636 306° West 136 157 12,100  Level Denver Center
09:18AM 43.4744 -107.0058 304° West 138 159 12,100  Level Denver Center
09:19AM 43.4933 -107.0453 303° West 131 151 12,100  Level Denver Center
09:20AM 43.5156 -107.0858 307° West 121 139 12,100  Level Denver Center
09:21AM 43.5347 -107.1206 307° West 119 137 12,100  Level Denver Center
09:22AM 43.5539 -107.1578 305° West 123 142 12,100  Level Denver Center
09:23AM 43.5783 -107.1989 309° West 124 143 12,100  Level Denver Center
09:24AM 43.5939 -107.2336 302° West 114 131 12,100  Level Denver Center
09:25AM 43.6108 -107.2692 303° West 115 132 12,100 -60 Level Denver Center
09:26AM 43.6325 -107.3133 304° West 123 142 12,000 -60 Descending Salt Lake Center
09:27AM 43.6575 -107.3553 309° West 127 146 12,000  Level Salt Lake Center
09:28AM 43.6775 -107.3922 307° West 126 145 12,000  Level Salt Lake Center
09:29AM 43.6953 -107.4289 304° West 121 139 12,000  Level Salt Lake Center
09:30AM 43.7186 -107.4711 307° West 122 140 12,000  Level Salt Lake Center
09:31AM 43.7375 -107.5078 305° West 123 142 12,000  Level Salt Lake Center
09:32AM 43.7583 -107.5447 308° West 124 143 12,000  Level Salt Lake Center
09:33AM 43.7814 -107.5886 306° West 125 144 12,000  Level Salt Lake Center
09:34AM 43.8008 -107.6272 305° West 126 145 12,000  Level Salt Lake Center
09:35AM 43.8211 -107.6658 306° West 128 147 12,000  Level Salt Lake Center
09:36AM 43.8456 -107.7117 306° West 130 150 12,000  Level Salt Lake Center
09:37AM 43.8669 -107.7522 306° West 132 152 12,000  Level Salt Lake Center
09:38AM 43.8931 -107.7989 308° West 135 155 12,000  Level Salt Lake Center
09:39AM 43.9139 -107.8411 304° West 137 158 12,000  Level Salt Lake Center
09:40AM 43.9350 -107.8825 305° West 138 159 12,000  Level Salt Lake Center
09:41AM 43.9597 -107.9317 305° West 138 159 12,000  Level Salt Lake Center
09:42AM 43.9817 -107.9728 307° West 138 159 12,000  Level Salt Lake Center
09:43AM 44.0031 -108.0150 305° West 138 159 12,100  Climbing Salt Lake Center
09:44AM 44.0281 -108.0636 306° West 138 159 12,100 -60 Level Salt Lake Center
09:45AM 44.0514 -108.1067 307° West 141 162 12,000 -60 Descending Salt Lake Center
09:46AM 44.0742 -108.1508 306° West 144 166 12,000  Level Salt Lake Center
09:47AM 44.1011 -108.2025 306° West 146 168 12,000  Level Salt Lake Center
09:48AM 44.1242 -108.2467 306° West 147 169 12,000  Level Salt Lake Center
09:50AM 44.1464 -108.2919 304° West 147 169 12,100  Climbing Salt Lake Center
09:51AM 44.1736 -108.3433 306° West 147 169 12,000 -60 Descending Salt Lake Center
09:52AM 44.1956 -108.3869 305° West 146 168 12,000 -120 Level Salt Lake Center
09:53AM 44.2225 -108.4378 306° West 145 167 11,800 -300 Descending Salt Lake Center
09:54AM 44.2461 -108.4822 307° West 147 169 11,500 -300 Descending Salt Lake Center
09:55AM 44.2681 -108.5275 304° West 147 169 11,200 -300 Descending Salt Lake Center
09:56AM 44.2956 -108.5817 305° West 150 173 11,000 -240 Descending Salt Lake Center
09:57AM 44.3197 -108.6269 307° West 151 174 10,800 -240 Descending Salt Lake Center